Time;durP1;ratioP1;P1;durP2;ratioP2;P2;SDS_P1;SDS_P2;PMS_P1;PMS_P2;Temp;Humidity;BMP_temperature;BMP_pressure;BME280_temperature;BME280_humidity;BME280_pressure;Samples;Min_cycle;Max_cycle;Signal;HPM_P1;HPM_P2
2022/07/29 00:00:37;;;;;;;2.55;0.57;;;15.60;93.30;;;;;;5043075;28;20033;-71
2022/07/29 00:03:03;;;;;;;0.95;0.45;;;15.60;93.30;;;;;;5039468;28;20129;-71
2022/07/29 00:05:29;;;;;;;0.90;0.40;;;15.60;93.30;;;;;;5043278;28;20044;-71
2022/07/29 00:07:54;;;;;;;1.15;0.38;;;15.50;93.30;;;;;;5044158;28;20041;-71
2022/07/29 00:10:20;;;;;;;1.92;0.68;;;15.60;93.70;;;;;;5043293;28;20136;-71
2022/07/29 00:12:46;;;;;;;0.93;0.40;;;15.60;93.50;;;;;;5026930;28;20041;-71
2022/07/29 00:15:12;;;;;;;0.93;0.40;;;15.60;93.40;;;;;;5044865;28;20383;-71
2022/07/29 00:17:38;;;;;;;0.57;0.40;;;15.50;93.50;;;;;;5041944;28;20707;-71
2022/07/29 00:20:04;;;;;;;0.50;0.35;;;15.50;93.50;;;;;;5047325;28;20045;-71
2022/07/29 00:22:30;;;;;;;1.30;0.68;;;15.50;93.60;;;;;;5056382;28;20618;-72
2022/07/29 00:24:56;;;;;;;1.23;0.47;;;15.50;93.60;;;;;;5041768;28;20045;-71
2022/07/29 00:27:21;;;;;;;1.00;0.40;;;15.40;93.60;;;;;;5041517;28;20080;-71
2022/07/29 00:29:47;;;;;;;0.93;0.52;;;15.50;93.60;;;;;;5043414;28;20041;-71
2022/07/29 00:32:13;;;;;;;0.93;0.40;;;15.50;93.60;;;;;;5042468;28;20137;-71
2022/07/29 00:37:24;;;;;;;2.30;0.52;;;15.40;93.70;;;;;;5043358;28;20057;-71
2022/07/29 00:39:50;;;;;;;0.75;0.43;;;15.40;93.60;;;;;;5024547;28;20598;-71
2022/07/29 00:42:16;;;;;;;1.95;0.60;;;15.40;93.70;;;;;;5041953;28;20131;-71
2022/07/29 00:44:43;;;;;;;0.50;0.30;;;15.40;93.70;;;;;;5041950;28;20933;-71
2022/07/29 00:47:12;;;;;;;0.80;0.35;;;15.40;94.10;;;;;;5043808;28;20036;-71
2022/07/29 00:49:40;;;;;;;1.17;0.50;;;15.30;93.90;;;;;;5042893;28;20037;-71
2022/07/29 00:52:07;;;;;;;1.23;0.40;;;15.30;94.00;;;;;;5042102;28;20037;-71
2022/07/29 00:54:33;;;;;;;1.00;0.40;;;15.30;93.90;;;;;;5042202;28;20457;-71
2022/07/29 00:56:59;;;;;;;1.00;0.40;;;15.30;94.00;;;;;;5059047;28;20059;-71
2022/07/29 00:59:28;;;;;;;1.00;0.60;;;15.30;94.00;;;;;;5040646;28;20043;-71
2022/07/29 01:01:54;;;;;;;0.65;0.40;;;15.30;94.10;;;;;;5040848;28;20045;-71
2022/07/29 01:04:21;;;;;;;1.10;0.52;;;15.30;94.10;;;;;;5043008;28;20045;-71
2022/07/29 01:06:48;;;;;;;0.70;0.35;;;15.30;94.10;;;;;;5042409;28;20060;-71
2022/07/29 01:09:15;;;;;;;0.45;0.35;;;15.30;94.20;;;;;;5041937;28;20037;-71
2022/07/29 01:11:43;;;;;;;1.00;0.50;;;15.30;94.20;;;;;;5056726;28;20036;-71
2022/07/29 01:14:09;;;;;;;1.10;0.47;;;15.30;94.20;;;;;;5056155;28;20045;-71
2022/07/29 01:17:02;;;;;;;1.17;0.52;;;15.30;94.30;;;;;;5042803;28;20033;-71
2022/07/29 01:19:34;;;;;;;0.77;0.40;;;15.30;94.90;;;;;;5055642;28;20164;-71
2022/07/29 01:22:11;;;;;;;1.60;0.47;;;15.30;94.30;;;;;;5025472;28;20051;-71
2022/07/29 01:25:03;;;;;;;1.10;0.50;;;15.30;94.30;;;;;;5040084;28;20047;-71
2022/07/29 01:28:05;;;;;;;2.00;0.60;;;15.30;94.70;;;;;;5043679;28;20041;-71
2022/07/29 01:30:34;;;;;;;1.02;0.65;;;15.30;94.90;;;;;;5041294;28;20045;-71
2022/07/29 01:33:05;;;;;;;0.98;0.50;;;15.30;94.20;;;;;;5039402;28;20503;-71
2022/07/29 01:35:39;;;;;;;0.40;0.25;;;15.30;94.20;;;;;;5042098;28;20119;-71
2022/07/29 01:38:09;;;;;;;0.45;0.40;;;15.30;94.20;;;;;;5039025;28;20037;-71
2022/07/29 01:40:49;;;;;;;1.20;0.50;;;15.30;94.10;;;;;;5039468;28;20043;-71
2022/07/29 01:43:18;;;;;;;0.55;0.40;;;15.30;94.30;;;;;;5038959;28;20036;-71
2022/07/29 01:45:52;;;;;;;1.30;0.57;;;15.30;94.10;;;;;;5041656;28;20207;-71
2022/07/29 01:48:23;;;;;;;1.95;0.32;;;15.30;94.40;;;;;;5039597;28;20080;-71
2022/07/29 01:50:53;;;;;;;0.65;0.40;;;15.30;94.30;;;;;;5043270;28;20029;-71
2022/07/29 01:53:35;;;;;;;1.80;0.30;;;15.30;94.10;;;;;;5021896;28;20538;-71
2022/07/29 01:56:03;;;;;;;0.52;0.50;;;15.30;94.30;;;;;;5042284;28;20049;-71
2022/07/29 01:58:31;;;;;;;0.98;0.55;;;15.30;94.10;;;;;;5041583;28;20049;-71
2022/07/29 02:00:59;;;;;;;2.38;0.68;;;15.30;94.10;;;;;;5024767;28;20041;-71
2022/07/29 02:03:26;;;;;;;1.15;0.88;;;15.20;94.10;;;;;;5039010;28;20568;-71
2022/07/29 02:05:53;;;;;;;3.90;0.60;;;15.20;94.10;;;;;;5043202;28;20414;-71
2022/07/29 02:08:21;;;;;;;0.80;0.40;;;15.20;94.10;;;;;;5039131;28;20044;-71
2022/07/29 02:10:49;;;;;;;2.05;0.50;;;15.20;94.10;;;;;;5040049;28;20486;-71
2022/07/29 02:13:17;;;;;;;0.55;0.30;;;15.20;94.30;;;;;;5038642;28;20961;-71
2022/07/29 02:15:44;;;;;;;0.50;0.25;;;15.20;94.30;;;;;;5040929;28;20045;-71
2022/07/29 02:18:15;;;;;;;0.80;0.30;;;15.20;94.20;;;;;;5041985;28;20041;-71
2022/07/29 02:20:46;;;;;;;1.08;0.60;;;15.20;94.30;;;;;;5043713;28;20029;-71
2022/07/29 02:23:14;;;;;;;0.35;0.22;;;15.10;94.30;;;;;;5038178;28;20041;-71
2022/07/29 02:25:41;;;;;;;1.50;0.50;;;15.10;94.40;;;;;;5022329;28;20487;-71
2022/07/29 02:28:07;;;;;;;0.20;0.20;;;15.10;94.50;;;;;;5042145;28;20049;-71
2022/07/29 02:30:36;;;;;;;0.75;0.40;;;15.10;94.40;;;;;;5023958;28;20123;-71
2022/07/29 02:33:03;;;;;;;1.90;0.50;;;15.10;94.60;;;;;;5040368;28;20033;-71
2022/07/29 02:35:29;;;;;;;0.88;0.40;;;15.10;94.60;;;;;;5039631;28;20043;-71
2022/07/29 02:40:42;;;;;;;0.52;0.30;;;15.00;94.70;;;;;;5055983;28;20402;-71
2022/07/29 02:43:09;;;;;;;0.90;0.40;;;15.00;94.80;;;;;;5039996;28;20053;-71
2022/07/29 02:45:35;;;;;;;0.93;0.50;;;15.00;94.70;;;;;;5040604;28;20041;-71
2022/07/29 02:48:13;;;;;;;0.60;0.40;;;15.00;94.70;;;;;;5038548;28;20044;-71
2022/07/29 02:50:45;;;;;;;0.47;0.25;;;15.00;95.10;;;;;;5023313;28;20060;-71
2022/07/29 02:53:24;;;;;;;1.00;0.47;;;15.00;95.00;;;;;;5051274;28;20051;-71
2022/07/29 02:56:06;;;;;;;0.50;0.40;;;15.00;95.20;;;;;;5040337;28;20033;-71
2022/07/29 02:58:37;;;;;;;1.20;0.45;;;15.00;95.20;;;;;;5041228;28;20041;-71
2022/07/29 03:01:11;;;;;;;1.45;0.60;;;14.90;95.20;;;;;;5038201;28;20515;-71
2022/07/29 03:03:39;;;;;;;3.80;0.70;;;15.00;95.10;;;;;;5041225;28;20045;-71
2022/07/29 03:06:07;;;;;;;1.17;0.35;;;14.90;95.10;;;;;;5039038;28;21094;-71
2022/07/29 03:08:34;;;;;;;2.72;0.60;;;15.00;95.20;;;;;;5036730;28;20047;-71
2022/07/29 03:11:01;;;;;;;4.43;0.40;;;15.00;95.50;;;;;;5017923;28;20107;-71
2022/07/29 03:13:29;;;;;;;0.30;0.30;;;14.90;95.30;;;;;;5040582;28;20056;-71
2022/07/29 03:15:55;;;;;;;1.08;0.47;;;14.90;95.30;;;;;;5041342;28;20064;-71
2022/07/29 03:18:22;;;;;;;1.13;0.63;;;14.90;95.40;;;;;;5042805;28;20037;-71
2022/07/29 03:20:47;;;;;;;0.45;0.20;;;14.90;95.40;;;;;;5039774;28;20037;-72
2022/07/29 03:23:23;;;;;;;0.90;0.50;;;14.90;95.40;;;;;;5037879;28;20052;-71
2022/07/29 03:25:50;;;;;;;0.95;0.40;;;14.90;95.60;;;;;;5044818;28;20045;-71
2022/07/29 03:28:15;;;;;;;1.17;0.60;;;14.90;95.50;;;;;;5045752;28;20045;-71
2022/07/29 03:30:41;;;;;;;0.88;0.30;;;14.90;95.50;;;;;;5045602;28;20041;-71
2022/07/29 03:33:06;;;;;;;0.95;0.40;;;14.90;95.60;;;;;;5040510;28;20098;-71
2022/07/29 03:35:32;;;;;;;1.23;0.55;;;14.90;95.60;;;;;;5045724;28;20391;-71
2022/07/29 03:37:58;;;;;;;1.60;0.65;;;14.90;95.70;;;;;;5042393;28;20517;-71
2022/07/29 03:40:48;;;;;;;0.73;0.40;;;14.90;95.70;;;;;;5045047;28;20048;-71
2022/07/29 03:43:16;;;;;;;0.75;0.40;;;14.90;96.30;;;;;;5041970;28;20049;-71
2022/07/29 03:45:47;;;;;;;0.77;0.30;;;14.90;95.80;;;;;;5026998;28;20067;-71
2022/07/29 03:48:16;;;;;;;1.05;0.40;;;14.90;95.80;;;;;;5043322;28;20048;-71
2022/07/29 03:50:42;;;;;;;1.40;0.52;;;14.90;95.80;;;;;;5044033;28;20033;-71
2022/07/29 03:53:08;;;;;;;0.80;0.57;;;14.90;95.90;;;;;;5042281;28;20500;-71
2022/07/29 03:55:39;;;;;;;2.75;0.32;;;14.90;95.90;;;;;;5045089;28;21083;-71
2022/07/29 03:58:06;;;;;;;1.00;0.45;;;14.80;96.00;;;;;;5042635;28;20047;-71
2022/07/29 04:00:33;;;;;;;0.60;0.38;;;14.90;95.90;;;;;;5044781;28;20044;-71
2022/07/29 04:02:59;;;;;;;1.63;0.20;;;14.90;95.90;;;;;;5044000;28;20037;-71
2022/07/29 04:05:24;;;;;;;4.35;0.75;;;14.90;95.90;;;;;;5037618;28;20095;-71
2022/07/29 04:07:50;;;;;;;1.27;0.57;;;14.80;96.00;;;;;;5041756;28;20041;-71
2022/07/29 04:10:17;;;;;;;0.80;0.45;;;14.80;96.00;;;;;;5042488;28;20095;-71
2022/07/29 04:12:43;;;;;;;3.90;1.08;;;14.80;96.00;;;;;;5043681;28;20155;-71
2022/07/29 04:15:09;;;;;;;4.72;0.68;;;14.80;96.00;;;;;;5026644;28;20147;-71
2022/07/29 04:17:34;;;;;;;3.20;0.60;;;14.80;96.10;;;;;;5045636;28;20036;-72
2022/07/29 04:20:00;;;;;;;1.70;0.50;;;14.80;96.10;;;;;;5044279;28;20039;-72
2022/07/29 04:22:26;;;;;;;1.65;0.57;;;14.80;96.20;;;;;;5043152;28;20065;-71
2022/07/29 04:24:51;;;;;;;1.00;0.50;;;14.80;96.20;;;;;;5042888;28;20045;-71
2022/07/29 04:27:17;;;;;;;0.52;0.40;;;14.80;96.20;;;;;;5041934;28;20053;-71
2022/07/29 04:29:42;;;;;;;1.55;0.68;;;14.80;96.20;;;;;;5022915;28;20081;-71
2022/07/29 04:32:08;;;;;;;0.28;0.25;;;14.90;96.30;;;;;;5042538;28;20045;-71
2022/07/29 04:34:33;;;;;;;0.88;0.50;;;14.80;96.30;;;;;;5042481;28;20531;-72
2022/07/29 04:36:59;;;;;;;1.40;0.40;;;14.80;96.30;;;;;;5043347;28;20577;-71
2022/07/29 04:39:25;;;;;;;1.17;0.30;;;14.80;96.30;;;;;;5041280;28;20044;-71
2022/07/29 04:41:51;;;;;;;0.93;0.57;;;14.80;96.40;;;;;;5043344;28;20181;-71
2022/07/29 04:44:17;;;;;;;0.95;0.32;;;14.80;96.30;;;;;;5041219;28;20483;-72
2022/07/29 04:46:42;;;;;;;0.93;0.50;;;14.80;96.40;;;;;;5040441;28;20142;-71
2022/07/29 04:49:08;;;;;;;1.30;0.52;;;14.80;96.40;;;;;;5047149;28;20429;-71
2022/07/29 04:51:34;;;;;;;0.95;0.55;;;14.80;96.40;;;;;;5042548;28;20060;-71
2022/07/29 04:54:00;;;;;;;3.20;0.68;;;14.80;96.40;;;;;;5042571;28;20083;-71
2022/07/29 04:56:26;;;;;;;0.88;0.55;;;14.90;96.40;;;;;;5042386;28;20498;-71
2022/07/29 04:58:51;;;;;;;1.75;0.35;;;14.80;96.50;;;;;;5042786;28;20036;-71
2022/07/29 05:01:17;;;;;;;0.80;0.43;;;14.80;96.50;;;;;;5056843;28;20056;-72
2022/07/29 05:03:43;;;;;;;1.70;0.70;;;14.80;96.50;;;;;;5041841;28;20033;-71
2022/07/29 05:06:08;;;;;;;0.85;0.50;;;14.90;96.50;;;;;;5043741;28;20071;-72
2022/07/29 05:08:34;;;;;;;0.93;0.80;;;14.90;96.50;;;;;;5041152;28;20157;-71
2022/07/29 05:10:59;;;;;;;0.70;0.40;;;14.90;96.60;;;;;;5033273;28;20032;-71
2022/07/29 05:13:25;;;;;;;0.90;0.40;;;14.90;96.50;;;;;;5039986;28;20675;-71
2022/07/29 05:15:50;;;;;;;1.23;0.50;;;14.90;96.50;;;;;;5042077;28;20056;-71
2022/07/29 05:18:16;;;;;;;4.35;0.50;;;14.90;96.60;;;;;;5045205;28;20044;-71
2022/07/29 05:20:42;;;;;;;0.60;0.40;;;14.90;96.60;;;;;;5044732;28;20124;-71
2022/07/29 05:23:07;;;;;;;0.40;0.30;;;15.00;96.60;;;;;;5042229;28;20040;-71
2022/07/29 05:25:33;;;;;;;0.40;0.20;;;15.00;96.60;;;;;;5041460;28;20037;-71
2022/07/29 05:27:58;;;;;;;1.00;0.50;;;15.00;96.50;;;;;;5039712;28;20091;-71
2022/07/29 05:30:24;;;;;;;1.15;0.60;;;15.00;96.50;;;;;;5042502;28;20106;-71
2022/07/29 05:32:50;;;;;;;1.25;0.50;;;15.10;96.60;;;;;;5040551;28;20049;-71
2022/07/29 05:35:15;;;;;;;1.25;0.60;;;15.00;96.50;;;;;;5042667;28;20086;-71
2022/07/29 05:37:41;;;;;;;1.52;0.60;;;15.00;96.50;;;;;;5041376;28;20037;-71
2022/07/29 05:40:08;;;;;;;0.75;0.38;;;15.10;96.50;;;;;;5023602;28;20051;-71
2022/07/29 05:42:34;;;;;;;2.53;0.90;;;15.10;96.50;;;;;;5040613;28;20048;-71
2022/07/29 05:45:00;;;;;;;0.85;0.40;;;15.10;96.50;;;;;;5040769;28;20029;-71
2022/07/29 05:47:26;;;;;;;5.35;0.55;;;15.00;96.50;;;;;;5041934;28;20131;-71
2022/07/29 05:49:52;;;;;;;0.90;0.50;;;15.10;96.50;;;;;;5041979;28;20338;-71
2022/07/29 05:52:18;;;;;;;1.35;0.50;;;15.20;96.50;;;;;;5027959;28;20036;-71
2022/07/29 05:54:44;;;;;;;0.57;0.32;;;15.20;96.50;;;;;;5040538;28;20033;-71
2022/07/29 05:57:20;;;;;;;1.20;0.50;;;15.20;96.60;;;;;;5040719;28;20044;-71
2022/07/29 05:59:47;;;;;;;1.63;0.65;;;15.30;96.60;;;;;;5035071;28;20035;-71
2022/07/29 06:02:12;;;;;;;2.10;0.40;;;15.30;96.50;;;;;;5044055;28;20047;-71
2022/07/29 06:04:38;;;;;;;1.92;0.90;;;15.40;96.40;;;;;;5030163;28;20033;-71
2022/07/29 06:07:04;;;;;;;1.90;0.75;;;15.40;96.30;;;;;;5046033;28;20064;-71
2022/07/29 06:09:29;;;;;;;0.47;0.40;;;15.40;96.20;;;;;;5043643;28;20637;-71
2022/07/29 06:11:55;;;;;;;1.75;0.50;;;15.50;96.20;;;;;;5037793;28;20029;-71
2022/07/29 06:14:21;;;;;;;1.20;0.68;;;15.50;96.20;;;;;;5038399;28;20043;-71
2022/07/29 06:16:46;;;;;;;2.25;0.73;;;15.50;96.10;;;;;;5037469;28;20083;-71
2022/07/29 06:19:12;;;;;;;0.82;0.40;;;15.50;96.20;;;;;;5037803;28;20041;-71
2022/07/29 06:21:44;;;;;;;0.70;0.30;;;15.60;96.10;;;;;;5039332;28;20048;-71
2022/07/29 06:24:12;;;;;;;1.13;0.50;;;15.60;96.10;;;;;;5037038;28;20175;-70
2022/07/29 06:26:38;;;;;;;0.47;0.40;;;15.60;96.10;;;;;;5038391;28;20041;-71
2022/07/29 06:29:05;;;;;;;0.80;0.43;;;15.70;96.00;;;;;;5040677;28;20048;-71
2022/07/29 06:31:30;;;;;;;0.60;0.40;;;15.70;96.00;;;;;;5038309;28;20053;-71
2022/07/29 06:33:56;;;;;;;2.10;0.75;;;15.70;96.00;;;;;;5035634;28;20429;-71
2022/07/29 06:36:22;;;;;;;0.30;0.30;;;15.80;96.00;;;;;;5036950;28;21595;-71
2022/07/29 06:38:47;;;;;;;0.77;0.38;;;15.70;95.90;;;;;;5037642;28;20048;-71
2022/07/29 06:41:15;;;;;;;0.75;0.40;;;15.70;95.80;;;;;;5034426;28;20048;-71
2022/07/29 06:43:43;;;;;;;1.65;0.60;;;15.70;95.80;;;;;;5039721;28;20048;-71
2022/07/29 06:46:12;;;;;;;0.65;0.43;;;15.70;95.90;;;;;;5037232;28;20478;-71
2022/07/29 06:48:38;;;;;;;2.10;0.70;;;15.70;95.90;;;;;;5037959;28;20188;-72
2022/07/29 06:51:05;;;;;;;1.08;0.60;;;15.80;96.00;;;;;;5037675;28;20040;-71
2022/07/29 06:53:32;;;;;;;1.02;0.50;;;15.90;96.00;;;;;;5017685;28;20671;-71
2022/07/29 06:55:59;;;;;;;0.75;0.30;;;15.80;95.90;;;;;;5039158;28;20048;-71
2022/07/29 06:58:26;;;;;;;0.90;0.55;;;15.90;95.90;;;;;;5039648;28;20044;-71
2022/07/29 07:00:51;;;;;;;0.80;0.43;;;15.90;95.80;;;;;;5044710;28;20044;-71
2022/07/29 07:03:18;;;;;;;0.90;0.47;;;15.90;95.80;;;;;;5042239;28;20079;-71
2022/07/29 07:05:44;;;;;;;1.10;0.60;;;15.90;95.90;;;;;;5041192;28;20037;-71
2022/07/29 07:08:11;;;;;;;0.85;0.40;;;15.90;96.00;;;;;;5037932;28;20047;-70
2022/07/29 07:10:37;;;;;;;1.45;0.50;;;16.00;96.00;;;;;;5040510;28;20137;-71
2022/07/29 07:13:03;;;;;;;2.45;0.60;;;16.00;95.90;;;;;;5040934;28;20052;-71
2022/07/29 07:15:29;;;;;;;1.20;0.50;;;16.00;95.90;;;;;;5043036;28;20048;-71
2022/07/29 07:17:55;;;;;;;1.17;0.40;;;16.10;95.60;;;;;;5057628;28;20029;-71
2022/07/29 07:20:20;;;;;;;1.38;0.50;;;16.20;95.60;;;;;;5041572;28;20037;-70
2022/07/29 07:22:46;;;;;;;1.50;0.57;;;16.20;95.70;;;;;;5039067;28;20041;-71
2022/07/29 07:25:13;;;;;;;1.00;0.50;;;16.20;95.60;;;;;;5034576;28;20035;-71
2022/07/29 07:27:39;;;;;;;1.25;0.93;;;16.30;95.70;;;;;;5039244;28;20072;-71
2022/07/29 07:30:06;;;;;;;1.35;0.68;;;16.30;95.50;;;;;;5041252;28;20037;-70
2022/07/29 07:32:35;;;;;;;2.03;0.57;;;16.50;95.30;;;;;;5041730;28;20037;-70
2022/07/29 07:35:01;;;;;;;1.10;0.60;;;16.50;95.10;;;;;;5039987;28;20402;-70
2022/07/29 07:37:27;;;;;;;0.63;0.45;;;16.50;95.10;;;;;;5038295;28;20045;-71
2022/07/29 07:39:53;;;;;;;1.08;0.50;;;16.50;95.00;;;;;;5042083;28;20059;-71
2022/07/29 07:42:19;;;;;;;1.88;0.88;;;16.50;95.00;;;;;;5041493;28;20052;-71
2022/07/29 07:44:48;;;;;;;1.60;0.50;;;16.60;94.90;;;;;;5029174;28;20040;-71
2022/07/29 07:47:15;;;;;;;1.67;0.60;;;16.60;94.80;;;;;;5045844;28;20041;-71
2022/07/29 07:49:41;;;;;;;1.20;0.60;;;16.60;95.10;;;;;;5031041;28;20048;-71
2022/07/29 07:52:06;;;;;;;3.00;0.70;;;16.70;95.10;;;;;;5040332;28;20510;-71
2022/07/29 07:54:32;;;;;;;1.27;0.45;;;16.80;94.70;;;;;;5056969;28;20426;-71
2022/07/29 07:56:58;;;;;;;0.43;0.43;;;16.80;94.60;;;;;;5037316;28;20047;-71
2022/07/29 07:59:23;;;;;;;1.70;0.70;;;16.90;94.50;;;;;;5040993;28;20135;-71
2022/07/29 08:01:50;;;;;;;3.03;0.65;;;16.90;94.40;;;;;;5040689;28;20043;-71
2022/07/29 08:04:15;;;;;;;0.55;0.40;;;17.00;94.30;;;;;;5020749;28;20078;-71
2022/07/29 08:06:41;;;;;;;1.48;0.60;;;17.00;94.20;;;;;;5039725;28;20033;-71
2022/07/29 08:09:07;;;;;;;2.78;0.70;;;17.00;94.30;;;;;;5041296;28;20110;-71
2022/07/29 08:11:32;;;;;;;0.93;0.50;;;17.00;94.30;;;;;;5041931;28;20048;-71
2022/07/29 08:13:58;;;;;;;2.85;0.60;;;17.20;94.20;;;;;;5041022;28;20041;-71
2022/07/29 08:16:24;;;;;;;4.00;0.98;;;17.20;94.20;;;;;;5037393;28;20041;-71
2022/07/29 08:18:50;;;;;;;1.88;0.60;;;17.20;94.00;;;;;;5038592;28;20321;-71
2022/07/29 08:21:17;;;;;;;1.13;0.68;;;17.20;94.00;;;;;;5038622;28;20434;-73
2022/07/29 08:23:48;;;;;;;2.42;0.70;;;17.10;93.90;;;;;;5023819;28;20094;-71
2022/07/29 08:26:14;;;;;;;1.25;0.60;;;17.10;93.90;;;;;;5040032;28;20334;-71
2022/07/29 08:28:45;;;;;;;1.10;0.40;;;17.00;94.00;;;;;;5037719;28;20346;-71
2022/07/29 08:31:11;;;;;;;1.15;0.40;;;17.00;94.10;;;;;;5051418;28;20037;-71
2022/07/29 08:33:37;;;;;;;0.68;0.40;;;17.10;94.20;;;;;;5022901;28;20115;-71
2022/07/29 08:36:03;;;;;;;1.15;0.40;;;17.10;94.20;;;;;;5036222;28;20053;-70
2022/07/29 08:38:28;;;;;;;0.40;0.35;;;17.20;94.10;;;;;;5031806;28;20048;-73
2022/07/29 08:40:55;;;;;;;1.10;0.57;;;17.10;94.00;;;;;;5033215;28;20033;-73
2022/07/29 08:43:20;;;;;;;2.55;0.75;;;17.20;93.90;;;;;;5029347;28;20045;-68
2022/07/29 08:45:48;;;;;;;1.30;0.70;;;17.20;94.10;;;;;;5033037;28;20567;-65
2022/07/29 08:48:15;;;;;;;1.38;0.60;;;17.10;94.00;;;;;;5046921;28;20052;-71
2022/07/29 08:50:43;;;;;;;2.08;0.77;;;17.10;94.00;;;;;;5032481;28;20045;-72
2022/07/29 08:53:13;;;;;;;1.10;0.57;;;17.20;93.80;;;;;;5049407;28;20402;-77
2022/07/29 08:55:49;;;;;;;1.20;0.50;;;17.20;93.80;;;;;;5034998;28;20112;-75
2022/07/29 08:58:15;;;;;;;0.82;0.50;;;17.30;93.80;;;;;;5014829;28;20063;-81
2022/07/29 09:00:45;;;;;;;1.48;0.50;;;17.50;93.80;;;;;;5019738;28;20099;-77
2022/07/29 09:03:14;;;;;;;0.95;0.57;;;17.50;93.70;;;;;;5037540;28;20417;-77
2022/07/29 09:05:42;;;;;;;1.33;0.60;;;17.60;93.60;;;;;;5034929;28;21553;-78
2022/07/29 09:08:08;;;;;;;0.85;0.57;;;17.70;93.50;;;;;;5012131;28;20494;-78
2022/07/29 09:10:35;;;;;;;1.67;0.95;;;17.70;93.40;;;;;;5034047;28;20052;-78
2022/07/29 09:13:01;;;;;;;1.38;0.70;;;17.80;93.10;;;;;;5019574;28;20419;-77
2022/07/29 09:15:26;;;;;;;1.85;0.70;;;17.80;93.10;;;;;;5039219;28;20122;-77
2022/07/29 09:17:52;;;;;;;3.50;0.68;;;17.90;93.10;;;;;;5037601;28;20037;-77
2022/07/29 09:20:20;;;;;;;2.25;0.80;;;17.90;93.00;;;;;;5024612;28;20119;-78
2022/07/29 09:22:49;;;;;;;4.25;0.90;;;17.90;93.10;;;;;;5037144;28;20052;-78
2022/07/29 09:25:39;;;;;;;1.40;0.80;;;17.90;93.10;;;;;;5035457;28;20210;-78
2022/07/29 09:28:11;;;;;;;2.55;0.60;;;17.80;92.30;;;;;;5035082;28;20103;-77
2022/07/29 09:30:54;;;;;;;0.90;0.60;;;17.80;92.90;;;;;;5041160;28;20047;-78
2022/07/29 09:33:22;;;;;;;1.98;0.80;;;17.80;92.80;;;;;;5034747;28;20041;-77
2022/07/29 09:36:03;;;;;;;1.65;0.63;;;17.80;93.20;;;;;;5037291;28;20071;-77
2022/07/29 09:38:29;;;;;;;1.20;0.68;;;17.80;93.00;;;;;;5041721;28;20131;-77
2022/07/29 09:40:59;;;;;;;2.53;0.70;;;17.70;93.20;;;;;;5036654;28;20051;-77
2022/07/29 09:43:25;;;;;;;1.08;0.50;;;17.80;93.40;;;;;;5038498;28;20041;-76
2022/07/29 09:45:50;;;;;;;0.70;0.40;;;17.80;93.20;;;;;;5038600;28;20036;-75
2022/07/29 09:48:22;;;;;;;2.20;0.90;;;17.80;93.20;;;;;;5027792;28;20041;-75
2022/07/29 09:50:52;;;;;;;6.60;0.93;;;17.80;93.30;;;;;;5020643;28;20094;-77
2022/07/29 09:53:37;;;;;;;1.83;0.90;;;17.80;93.40;;;;;;5034154;28;20036;-76
2022/07/29 09:56:04;;;;;;;2.08;0.75;;;17.70;93.20;;;;;;5041222;28;20072;-76
2022/07/29 09:58:33;;;;;;;1.13;0.47;;;17.80;93.30;;;;;;5035264;28;20036;-76
2022/07/29 10:00:58;;;;;;;1.13;0.60;;;17.80;93.30;;;;;;5034624;28;20135;-77
2022/07/29 10:03:25;;;;;;;1.63;0.60;;;17.70;93.20;;;;;;5037787;28;20033;-76
2022/07/29 10:06:10;;;;;;;1.10;0.70;;;17.80;93.30;;;;;;5033286;28;20037;-76
2022/07/29 10:08:36;;;;;;;1.40;0.60;;;17.80;93.20;;;;;;5035819;28;20033;-76
2022/07/29 10:11:13;;;;;;;1.00;0.55;;;17.80;93.30;;;;;;5030304;28;20045;-76
2022/07/29 10:13:40;;;;;;;1.40;0.80;;;17.90;93.00;;;;;;5052959;28;20044;-76
2022/07/29 10:16:06;;;;;;;1.02;0.63;;;17.90;93.30;;;;;;5036734;28;20044;-76
2022/07/29 10:18:32;;;;;;;3.13;0.90;;;17.90;93.30;;;;;;5021173;28;20040;-77
2022/07/29 10:21:00;;;;;;;2.22;0.90;;;18.00;93.30;;;;;;5037445;28;20623;-76
2022/07/29 10:23:30;;;;;;;1.48;0.77;;;18.00;93.20;;;;;;5021181;28;20041;-76
2022/07/29 10:25:56;;;;;;;1.67;1.10;;;18.00;93.20;;;;;;5037291;28;20040;-76
2022/07/29 10:28:22;;;;;;;3.00;0.95;;;18.00;93.30;;;;;;5032502;28;20160;-76
2022/07/29 10:30:51;;;;;;;1.20;0.70;;;18.00;93.20;;;;;;5027665;28;20118;-76
2022/07/29 10:33:33;;;;;;;1.30;0.80;;;18.00;93.00;;;;;;5033870;28;20033;-76
2022/07/29 10:36:16;;;;;;;1.10;0.60;;;18.00;93.00;;;;;;5036989;28;20037;-76
2022/07/29 10:38:56;;;;;;;1.55;0.80;;;18.10;93.10;;;;;;5038476;28;20079;-76
2022/07/29 10:42:00;;;;;;;1.17;0.65;;;18.10;92.90;;;;;;5035367;28;20052;-76
2022/07/29 10:44:27;;;;;;;1.65;0.77;;;18.10;92.90;;;;;;5037766;28;20559;-77
2022/07/29 10:46:53;;;;;;;2.17;0.90;;;18.20;93.00;;;;;;5036187;28;20029;-77
2022/07/29 10:49:21;;;;;;;2.03;0.68;;;18.30;93.10;;;;;;5053880;28;20060;-76
2022/07/29 10:51:50;;;;;;;4.85;0.75;;;18.30;93.00;;;;;;5040013;28;20079;-77
2022/07/29 10:54:47;;;;;;;1.38;0.68;;;18.40;93.10;;;;;;5034853;28;20122;-76
2022/07/29 10:57:29;;;;;;;3.13;0.73;;;18.40;92.80;;;;;;5036569;28;20045;-76
2022/07/29 11:00:04;;;;;;;1.73;0.88;;;18.40;93.00;;;;;;5020859;28;20152;-76
2022/07/29 11:02:44;;;;;;;2.13;0.68;;;18.50;93.20;;;;;;5038802;28;20049;-76
2022/07/29 11:05:14;;;;;;;1.40;0.52;;;18.60;93.10;;;;;;5036793;28;20052;-76
2022/07/29 11:08:12;;;;;;;1.88;0.98;;;18.50;93.00;;;;;;5035309;28;20116;-76
2022/07/29 11:10:38;;;;;;;3.28;0.90;;;18.60;93.00;;;;;;5034095;28;20037;-76
2022/07/29 11:13:04;;;;;;;1.02;0.52;;;18.70;93.10;;;;;;5036451;28;20175;-76
2022/07/29 11:15:56;;;;;;;1.75;0.80;;;18.70;93.20;;;;;;5037735;28;20199;-76
2022/07/29 11:18:21;;;;;;;2.63;1.25;;;18.70;93.20;;;;;;5038914;28;20037;-76
2022/07/29 11:20:53;;;;;;;2.30;0.85;;;18.80;93.10;;;;;;5017619;28;20118;-76
2022/07/29 11:23:35;;;;;;;1.33;0.60;;;18.80;93.10;;;;;;5021125;28;20029;-76
2022/07/29 11:26:21;;;;;;;1.83;0.70;;;18.80;92.90;;;;;;5033428;28;20036;-76
2022/07/29 11:28:53;;;;;;;1.77;1.10;;;18.80;93.10;;;;;;5021187;28;20136;-76
2022/07/29 11:31:35;;;;;;;1.50;0.73;;;18.90;93.20;;;;;;5041322;28;20486;-75
2022/07/29 11:34:20;;;;;;;1.65;1.05;;;18.90;93.20;;;;;;5039442;28;20509;-75
2022/07/29 11:37:12;;;;;;;1.92;0.98;;;19.00;92.90;;;;;;5034360;28;20041;-74
2022/07/29 11:39:47;;;;;;;2.13;0.82;;;19.10;92.80;;;;;;5032910;28;20048;-74
2022/07/29 11:42:25;;;;;;;3.22;0.75;;;19.20;93.10;;;;;;5038617;28;20620;-69
2022/07/29 11:45:05;;;;;;;3.08;1.10;;;19.20;93.10;;;;;;5039215;28;20049;-74
2022/07/29 11:47:32;;;;;;;3.22;0.82;;;19.40;93.00;;;;;;5043199;28;20127;-75
2022/07/29 11:49:59;;;;;;;3.40;0.90;;;19.40;92.80;;;;;;5050471;28;20490;-75
2022/07/29 11:52:46;;;;;;;1.70;0.80;;;19.50;92.60;;;;;;5048792;28;20453;-75
2022/07/29 11:55:17;;;;;;;1.52;0.63;;;19.50;92.40;;;;;;5034027;28;20045;-75
2022/07/29 11:57:53;;;;;;;1.30;0.63;;;19.60;92.60;;;;;;5033501;28;20118;-74
2022/07/29 12:00:26;;;;;;;4.57;0.88;;;19.60;92.60;;;;;;5031690;28;20037;-74
2022/07/29 12:02:52;;;;;;;1.15;0.73;;;19.70;92.50;;;;;;5049434;28;20047;-74
2022/07/29 12:05:19;;;;;;;3.17;0.85;;;19.70;92.50;;;;;;5049975;28;20037;-75
2022/07/29 12:07:44;;;;;;;2.42;0.82;;;19.80;92.50;;;;;;5048960;28;20029;-74
2022/07/29 12:10:10;;;;;;;2.67;0.88;;;19.80;92.30;;;;;;5049831;28;20486;-74
2022/07/29 12:12:37;;;;;;;2.15;0.60;;;19.90;92.30;;;;;;5049209;28;20125;-74
2022/07/29 12:15:13;;;;;;;2.10;1.00;;;19.90;92.00;;;;;;5048063;28;20545;-74
2022/07/29 12:17:39;;;;;;;1.92;0.90;;;19.90;92.00;;;;;;5018230;28;20060;-74
2022/07/29 12:20:05;;;;;;;2.38;0.95;;;20.00;92.20;;;;;;5049671;28;20398;-74
2022/07/29 12:22:37;;;;;;;0.95;0.47;;;20.10;92.10;;;;;;5048779;28;20041;-74
2022/07/29 12:25:09;;;;;;;1.67;0.80;;;20.10;92.00;;;;;;5049111;28;20041;-74
2022/07/29 12:27:35;;;;;;;2.35;0.73;;;20.20;91.90;;;;;;5032680;28;20402;-74
2022/07/29 12:30:04;;;;;;;1.83;0.80;;;20.20;91.70;;;;;;5032931;28;20047;-74
2022/07/29 12:32:34;;;;;;;1.33;0.63;;;20.20;91.50;;;;;;5047708;28;20032;-74
2022/07/29 12:35:21;;;;;;;2.22;0.65;;;20.20;91.40;;;;;;5032708;28;20533;-74
2022/07/29 12:37:47;;;;;;;1.13;0.70;;;20.30;91.50;;;;;;5030966;28;20045;-74
2022/07/29 12:40:16;;;;;;;0.88;0.50;;;20.30;91.40;;;;;;5048143;28;20198;-74
2022/07/29 12:43:09;;;;;;;2.28;0.80;;;20.40;91.40;;;;;;5032766;28;20521;-74
2022/07/29 12:45:35;;;;;;;1.85;0.70;;;20.50;91.00;;;;;;5032602;28;20048;-74
2022/07/29 12:48:01;;;;;;;3.60;1.05;;;20.50;91.30;;;;;;5047539;28;20064;-74
2022/07/29 12:50:26;;;;;;;1.27;0.70;;;20.60;91.30;;;;;;5048997;28;20126;-74
2022/07/29 12:52:52;;;;;;;1.10;0.82;;;20.70;91.10;;;;;;5031359;28;20045;-74
2022/07/29 12:55:41;;;;;;;2.13;0.80;;;20.70;91.00;;;;;;5048365;28;20044;-74
2022/07/29 12:58:06;;;;;;;5.25;0.75;;;20.70;90.40;;;;;;5046529;28;20373;-74
2022/07/29 13:00:32;;;;;;;3.00;0.70;;;20.80;90.90;;;;;;5048625;28;20076;-74
2022/07/29 13:03:00;;;;;;;2.40;0.90;;;20.90;90.80;;;;;;5048983;28;20041;-74